createdAt,value
2023-01-17T00:00:00.306Z,31.9
2023-01-17T00:01:04.759Z,33.0
2023-01-17T00:02:01.172Z,33.0
2023-01-17T00:03:00.400Z,33.0
2023-01-17T00:04:00.670Z,33.0
2023-01-17T00:05:00.392Z,33.0
2023-01-17T00:06:03.132Z,31.9
2023-01-17T00:07:00.491Z,31.9
2023-01-17T00:08:00.322Z,31.9
2023-01-17T00:09:00.305Z,31.9
2023-01-17T00:10:03.729Z,31.9
2023-01-17T00:11:00.378Z,33.1
2023-01-17T00:12:00.412Z,33.1
2023-01-17T00:13:02.126Z,33.1
2023-01-17T00:14:00.337Z,33.1
2023-01-17T00:15:00.748Z,33.1
2023-01-17T00:16:00.391Z,33.5
2023-01-17T00:17:00.349Z,33.5
2023-01-17T00:18:00.374Z,33.5
2023-01-17T00:19:00.405Z,33.5
2023-01-17T00:20:00.401Z,33.5
2023-01-17T00:21:00.358Z,31.4
2023-01-17T00:22:00.381Z,31.4
2023-01-17T00:23:00.648Z,31.4
2023-01-17T00:24:00.369Z,31.4
2023-01-17T00:25:00.434Z,31.4
2023-01-17T00:26:00.647Z,29.4
2023-01-17T00:27:00.381Z,29.4
2023-01-17T00:28:00.886Z,29.4
2023-01-17T00:29:00.363Z,29.4
2023-01-17T00:30:00.383Z,29.4
2023-01-17T00:31:01.356Z,30.2
2023-01-17T00:32:00.381Z,30.2
2023-01-17T00:33:00.400Z,30.2
2023-01-17T00:34:00.372Z,30.2
2023-01-17T00:35:00.410Z,30.2
2023-01-17T00:36:01.887Z,29.0
2023-01-17T00:37:00.369Z,29.0
2023-01-17T00:38:01.668Z,29.0
2023-01-17T00:39:00.392Z,29.0
2023-01-17T00:40:00.368Z,29.0
2023-01-17T00:41:03.201Z,29.6
2023-01-17T00:42:00.400Z,29.6
2023-01-17T00:43:00.797Z,29.6
2023-01-17T00:44:00.385Z,29.6
2023-01-17T00:45:00.468Z,29.6
2023-01-17T00:46:00.741Z,28.8
2023-01-17T00:47:00.396Z,28.8
2023-01-17T00:48:00.381Z,28.8
2023-01-17T00:49:00.488Z,28.8
2023-01-17T00:50:00.396Z,28.8
2023-01-17T00:51:01.865Z,27.5
2023-01-17T00:52:00.438Z,27.5
2023-01-17T00:53:03.951Z,27.5
2023-01-17T00:54:00.722Z,27.5
2023-01-17T00:55:00.410Z,27.5
2023-01-17T00:56:00.833Z,26.8
2023-01-17T00:57:01.039Z,26.8
2023-01-17T00:58:04.691Z,26.8
2023-01-17T00:59:00.416Z,26.8
2023-01-17T01:00:00.419Z,26.8
2023-01-17T01:01:04.731Z,28.4
2023-01-17T01:02:00.617Z,28.4
2023-01-17T01:03:00.420Z,28.4
2023-01-17T01:04:00.371Z,28.4
2023-01-17T01:05:00.912Z,28.4
2023-01-17T01:06:03.160Z,27.5
2023-01-17T01:07:00.423Z,27.5
2023-01-17T01:08:00.526Z,27.5
2023-01-17T01:09:00.392Z,27.5
2023-01-17T01:10:00.393Z,27.5
2023-01-17T01:11:03.888Z,27.9
2023-01-17T01:12:00.412Z,27.9
2023-01-17T01:13:00.388Z,27.9
2023-01-17T01:14:01.197Z,27.9
2023-01-17T01:15:00.388Z,27.9
2023-01-17T01:16:01.875Z,26.9
2023-01-17T01:17:00.397Z,26.9
2023-01-17T01:18:05.832Z,26.9
2023-01-17T01:19:00.801Z,26.9
2023-01-17T01:20:00.489Z,26.9
2023-01-17T01:21:02.623Z,26.7
2023-01-17T01:22:00.381Z,26.7
2023-01-17T01:23:07.666Z,26.7
2023-01-17T01:24:00.381Z,26.7
2023-01-17T01:25:00.387Z,26.7
2023-01-17T01:26:02.579Z,27.0
2023-01-17T01:27:00.735Z,27.0
2023-01-17T01:28:06.151Z,27.0
2023-01-17T01:29:00.388Z,27.0
2023-01-17T01:30:00.482Z,27.0
2023-01-17T01:31:02.176Z,26.8
2023-01-17T01:32:00.427Z,26.8
2023-01-17T01:33:07.327Z,26.8
2023-01-17T01:34:00.386Z,26.8
2023-01-17T01:35:00.439Z,26.8
2023-01-17T01:36:00.380Z,25.9
2023-01-17T01:37:00.397Z,25.9
2023-01-17T01:38:01.366Z,25.9
2023-01-17T01:39:00.388Z,25.9
2023-01-17T01:40:00.400Z,25.9
2023-01-17T01:41:00.420Z,27.2
2023-01-17T01:42:00.383Z,27.2
2023-01-17T01:43:00.443Z,27.2
2023-01-17T01:44:00.411Z,27.2
2023-01-17T01:45:00.520Z,27.2
2023-01-17T01:46:00.415Z,25.4
2023-01-17T01:47:00.977Z,25.4
2023-01-17T01:48:04.196Z,25.4
2023-01-17T01:49:05.007Z,25.4
2023-01-17T01:50:04.021Z,25.4
2023-01-17T01:51:04.994Z,26.0
2023-01-17T01:52:03.861Z,26.0
2023-01-17T01:53:03.101Z,26.0
2023-01-17T01:54:05.776Z,26.0
2023-01-17T01:55:04.600Z,26.0
2023-01-17T01:56:02.280Z,24.8
2023-01-17T01:57:03.824Z,24.8
2023-01-17T01:58:06.977Z,24.8
2023-01-17T01:59:02.915Z,24.8
2023-01-17T02:00:06.786Z,24.8
2023-01-17T02:01:00.917Z,23.0
2023-01-17T02:02:00.887Z,23.0
2023-01-17T02:03:06.580Z,23.0
2023-01-17T02:04:01.525Z,23.0
2023-01-17T02:05:01.938Z,23.0
2023-01-17T02:06:07.654Z,16.8
2023-01-17T02:07:12.400Z,16.8
2023-01-17T02:08:05.068Z,16.8
2023-01-17T02:09:06.068Z,16.8
2023-01-17T02:10:02.088Z,16.8
2023-01-17T02:11:01.026Z,14.1
2023-01-17T02:12:02.129Z,14.1
2023-01-17T02:13:01.240Z,14.1
2023-01-17T02:14:00.548Z,14.1
2023-01-17T02:15:02.399Z,14.1
2023-01-17T02:16:09.684Z,13.5
2023-01-17T02:17:20.317Z,13.5
2023-01-17T02:18:15.428Z,13.5
2023-01-17T02:19:13.599Z,13.5
2023-01-17T02:20:13.606Z,13.5
2023-01-17T02:21:10.403Z,9.7
2023-01-17T02:22:19.520Z,9.7
2023-01-17T02:23:20.314Z,9.7
2023-01-17T02:24:20.298Z,9.7
2023-01-17T02:25:02.378Z,9.7
2023-01-17T02:26:13.607Z,8.5
2023-01-17T02:27:11.888Z,8.5
2023-01-17T02:28:10.321Z,8.5
2023-01-17T02:29:20.322Z,8.5
2023-01-17T02:30:10.315Z,8.5
2023-01-17T02:31:08.355Z,7.9
2023-01-17T02:32:09.898Z,7.9
2023-01-17T02:33:11.621Z,7.9
2023-01-17T02:34:20.294Z,7.9
2023-01-17T02:35:10.361Z,7.9
2023-01-17T02:36:10.353Z,7.7
2023-01-17T02:37:10.716Z,7.7
2023-01-17T02:38:15.542Z,7.7
2023-01-17T02:39:08.537Z,7.7
2023-01-17T02:40:18.584Z,7.8
2023-01-17T02:41:04.249Z,7.8
2023-01-17T02:42:05.112Z,7.8
2023-01-17T02:43:07.415Z,7.8
2023-01-17T02:44:01.131Z,7.8
2023-01-17T02:45:02.011Z,7.8
2023-01-17T02:46:00.493Z,7.2
2023-01-17T02:47:00.370Z,7.2
2023-01-17T02:48:00.460Z,7.2
2023-01-17T02:49:00.495Z,7.2
2023-01-17T02:50:07.140Z,7.2
2023-01-17T02:51:14.108Z,7.6
2023-01-17T02:52:20.296Z,7.6
2023-01-17T02:53:17.456Z,7.6
2023-01-17T02:54:10.335Z,7.6
2023-01-17T02:55:13.558Z,6.9
2023-01-17T02:56:07.787Z,6.9
2023-01-17T02:57:20.313Z,6.9
2023-01-17T02:58:13.788Z,6.9
2023-01-17T02:59:06.807Z,6.9
2023-01-17T03:00:15.701Z,6.4
2023-01-17T03:01:17.528Z,6.4
2023-01-17T03:02:08.954Z,6.4
2023-01-17T03:03:11.043Z,6.4
2023-01-17T03:04:08.176Z,6.4
2023-01-17T03:05:09.456Z,6.4
2023-01-17T03:06:08.472Z,7.0
2023-01-17T03:07:04.555Z,7.0
2023-01-17T03:08:01.275Z,7.0
2023-01-17T03:09:01.619Z,7.0
2023-01-17T03:10:03.953Z,7.0
2023-01-17T03:11:00.481Z,6.8
2023-01-17T03:12:02.922Z,6.8
2023-01-17T03:13:01.906Z,6.8
2023-01-17T03:14:00.425Z,6.8
2023-01-17T03:15:00.443Z,6.8
2023-01-17T03:16:01.997Z,7.0
2023-01-17T03:17:00.663Z,7.0
2023-01-17T03:18:04.677Z,7.0
2023-01-17T03:19:00.508Z,7.0
2023-01-17T03:20:00.393Z,7.0
2023-01-17T03:21:00.488Z,6.8
2023-01-17T03:22:00.437Z,6.8
2023-01-17T03:23:00.515Z,6.8
2023-01-17T03:24:00.379Z,6.8
2023-01-17T03:25:00.366Z,6.8
2023-01-17T03:26:00.439Z,7.0
2023-01-17T03:27:00.409Z,7.0
2023-01-17T03:28:00.397Z,7.0
2023-01-17T03:29:01.206Z,7.0
2023-01-17T03:30:00.377Z,7.0
2023-01-17T03:31:00.538Z,6.9
2023-01-17T03:32:00.486Z,6.9
2023-01-17T03:33:00.390Z,6.9
2023-01-17T03:34:00.367Z,6.9
2023-01-17T03:35:00.411Z,6.9
2023-01-17T03:36:00.395Z,6.6
2023-01-17T03:37:00.407Z,6.6
2023-01-17T03:38:00.607Z,6.6
2023-01-17T03:39:00.376Z,6.6
2023-01-17T03:40:00.362Z,6.6
2023-01-17T03:41:00.377Z,6.2
2023-01-17T03:42:00.383Z,6.2
2023-01-17T03:43:00.378Z,6.2
2023-01-17T03:44:00.425Z,6.2
2023-01-17T03:45:00.372Z,6.2
2023-01-17T03:46:02.139Z,6.4
2023-01-17T03:47:00.377Z,6.4
2023-01-17T03:48:00.378Z,6.4
2023-01-17T03:49:00.373Z,6.4
2023-01-17T03:50:00.439Z,6.4
2023-01-17T03:51:00.369Z,6.7
2023-01-17T03:52:00.377Z,6.7
2023-01-17T03:53:00.815Z,6.7
2023-01-17T03:54:00.364Z,6.7
2023-01-17T03:55:00.541Z,6.7
2023-01-17T03:56:00.391Z,6.5
2023-01-17T03:57:00.480Z,6.5
2023-01-17T03:58:00.391Z,6.5
2023-01-17T03:59:01.311Z,6.5
2023-01-17T04:00:00.385Z,6.4
2023-01-17T04:01:00.510Z,6.4
2023-01-17T04:02:00.757Z,6.4
2023-01-17T04:03:00.371Z,6.4
2023-01-17T04:04:00.408Z,6.4
2023-01-17T04:05:00.446Z,6.4
2023-01-17T04:06:00.366Z,6.4
2023-01-17T04:07:00.473Z,6.4
2023-01-17T04:08:00.419Z,6.4
2023-01-17T04:09:00.362Z,6.4
2023-01-17T04:10:00.504Z,6.8
2023-01-17T04:11:00.422Z,6.8
2023-01-17T04:12:01.560Z,6.8
2023-01-17T04:13:00.410Z,6.8
2023-01-17T04:14:00.371Z,6.8
2023-01-17T04:15:00.358Z,6.7
2023-01-17T04:16:00.469Z,6.7
2023-01-17T04:17:00.516Z,6.7
2023-01-17T04:18:00.703Z,6.7
2023-01-17T04:19:00.411Z,6.7
2023-01-17T04:20:00.393Z,7.2
2023-01-17T04:21:00.382Z,7.2
2023-01-17T04:22:00.447Z,7.2
2023-01-17T04:23:00.896Z,7.2
2023-01-17T04:24:00.382Z,7.2
2023-01-17T04:25:00.410Z,7.7
2023-01-17T04:26:00.441Z,7.7
2023-01-17T04:27:00.405Z,7.7
2023-01-17T04:28:01.367Z,7.7
2023-01-17T04:29:00.578Z,7.7
2023-01-17T04:30:02.367Z,7.8
2023-01-17T04:31:00.436Z,7.8
2023-01-17T04:32:00.374Z,7.8
2023-01-17T04:33:00.400Z,7.8
2023-01-17T04:34:00.430Z,7.8
2023-01-17T04:35:00.383Z,8.2
2023-01-17T04:36:00.387Z,8.2
2023-01-17T04:37:00.405Z,8.2
2023-01-17T04:38:00.421Z,8.2
2023-01-17T04:39:00.480Z,8.2
2023-01-17T04:40:00.405Z,8.4
2023-01-17T04:41:00.412Z,8.4
2023-01-17T04:42:00.433Z,8.4
2023-01-17T04:43:00.388Z,8.4
2023-01-17T04:44:00.457Z,8.4
2023-01-17T04:45:00.517Z,8.4
2023-01-17T04:46:00.563Z,8.4
2023-01-17T04:47:00.371Z,8.4
2023-01-17T04:48:02.974Z,8.4
2023-01-17T04:49:00.379Z,8.4
2023-01-17T04:50:00.536Z,7.8
2023-01-17T04:51:01.874Z,7.8
2023-01-17T04:52:00.376Z,7.8
2023-01-17T04:53:00.452Z,7.8
2023-01-17T04:54:00.398Z,7.8
2023-01-17T04:55:00.504Z,7.3
2023-01-17T04:56:00.384Z,7.3
2023-01-17T04:57:00.421Z,7.3
2023-01-17T04:58:00.363Z,7.3
2023-01-17T04:59:00.386Z,7.3
2023-01-17T05:00:00.429Z,6.8
2023-01-17T05:01:02.776Z,6.8
2023-01-17T05:02:00.616Z,6.8
2023-01-17T05:03:00.533Z,6.8
2023-01-17T05:04:00.387Z,6.8
2023-01-17T05:05:00.475Z,6.2
2023-01-17T05:06:00.877Z,6.2
2023-01-17T05:07:00.552Z,6.2
2023-01-17T05:08:00.448Z,6.2
2023-01-17T05:09:00.376Z,6.2
2023-01-17T05:10:00.553Z,6.1
2023-01-17T05:11:00.571Z,6.1
2023-01-17T05:12:00.522Z,6.1
2023-01-17T05:13:00.396Z,6.1
2023-01-17T05:14:00.519Z,6.1
2023-01-17T05:15:00.787Z,5.9
2023-01-17T05:16:00.431Z,5.9
2023-01-17T05:17:00.493Z,5.9
2023-01-17T05:18:00.382Z,5.9
2023-01-17T05:19:00.431Z,5.9
2023-01-17T05:20:00.544Z,5.8
2023-01-17T05:21:01.756Z,5.8
2023-01-17T05:22:00.421Z,5.8
2023-01-17T05:23:00.471Z,5.8
2023-01-17T05:24:00.432Z,5.8
2023-01-17T05:25:00.422Z,5.6
2023-01-17T05:26:00.455Z,5.6
2023-01-17T05:27:00.396Z,5.6
2023-01-17T05:28:00.902Z,5.6
2023-01-17T05:29:00.420Z,5.6
2023-01-17T05:30:00.430Z,5.6
2023-01-17T05:31:00.590Z,5.6
2023-01-17T05:32:00.515Z,5.6
2023-01-17T05:33:00.495Z,5.6
2023-01-17T05:34:00.589Z,5.6
2023-01-17T05:35:00.370Z,5.3
2023-01-17T05:36:00.352Z,5.3
2023-01-17T05:37:00.407Z,5.3
2023-01-17T05:38:00.995Z,5.3
2023-01-17T05:39:00.380Z,5.3
2023-01-17T05:40:00.441Z,5.4
2023-01-17T05:41:01.547Z,5.4
2023-01-17T05:42:00.475Z,5.4
2023-01-17T05:43:00.921Z,5.4
2023-01-17T05:44:00.374Z,5.4
2023-01-17T05:45:00.387Z,5.2
2023-01-17T05:46:00.438Z,5.2
2023-01-17T05:47:00.381Z,5.2
2023-01-17T05:48:00.632Z,5.2
2023-01-17T05:49:00.392Z,5.2
2023-01-17T05:50:00.364Z,5.4
2023-01-17T05:51:00.422Z,5.4
2023-01-17T05:52:00.393Z,5.4
2023-01-17T05:53:04.727Z,5.4
2023-01-17T05:54:00.389Z,5.4
2023-01-17T05:55:00.372Z,5.2
2023-01-17T05:56:00.412Z,5.2
2023-01-17T05:57:00.410Z,5.2
2023-01-17T05:58:00.913Z,5.2
2023-01-17T05:59:00.429Z,5.2
2023-01-17T06:00:00.406Z,5.3
2023-01-17T06:01:00.448Z,5.3
2023-01-17T06:02:00.377Z,5.3
2023-01-17T06:03:00.962Z,5.3
2023-01-17T06:04:00.385Z,5.3
2023-01-17T06:05:03.217Z,4.9
2023-01-17T06:06:00.383Z,4.9
2023-01-17T06:07:00.384Z,4.9
2023-01-17T06:08:00.379Z,4.9
2023-01-17T06:09:00.425Z,4.9
2023-01-17T06:10:00.411Z,4.8
2023-01-17T06:11:00.406Z,4.8
2023-01-17T06:12:00.450Z,4.8
2023-01-17T06:13:02.413Z,4.8
2023-01-17T06:14:00.364Z,4.8
2023-01-17T06:15:00.388Z,4.6
2023-01-17T06:16:00.956Z,4.6
2023-01-17T06:17:00.371Z,4.6
2023-01-17T06:18:09.756Z,4.6
2023-01-17T06:19:00.387Z,4.6
2023-01-17T06:20:00.454Z,4.5
2023-01-17T06:21:00.406Z,4.5
2023-01-17T06:22:00.400Z,4.5
2023-01-17T06:23:01.252Z,4.5
2023-01-17T06:24:01.861Z,4.5
2023-01-17T06:25:00.404Z,4.5
2023-01-17T06:26:02.162Z,4.5
2023-01-17T06:27:00.376Z,4.5
2023-01-17T06:28:01.168Z,4.5
2023-01-17T06:29:00.429Z,4.5
2023-01-17T06:30:00.796Z,4.2
2023-01-17T06:31:05.136Z,4.2
2023-01-17T06:32:01.758Z,4.2
2023-01-17T06:33:00.848Z,4.2
2023-01-17T06:34:01.148Z,4.2
2023-01-17T06:35:00.422Z,4.7
2023-01-17T06:36:00.646Z,4.7
2023-01-17T06:37:00.351Z,4.7
2023-01-17T06:38:00.539Z,4.7
2023-01-17T06:39:00.410Z,4.7
2023-01-17T06:40:00.472Z,4.5
2023-01-17T06:41:02.809Z,4.5
2023-01-17T06:42:00.776Z,4.5
2023-01-17T06:43:00.811Z,4.5
2023-01-17T06:44:00.420Z,4.5
2023-01-17T06:45:00.367Z,4.4
2023-01-17T06:46:00.729Z,4.4
2023-01-17T06:47:00.394Z,4.4
2023-01-17T06:48:01.608Z,4.4
2023-01-17T06:49:00.432Z,4.4
2023-01-17T06:50:00.393Z,4.7
2023-01-17T06:51:00.363Z,4.7
2023-01-17T06:52:00.413Z,4.7
2023-01-17T06:53:04.054Z,4.7
2023-01-17T06:54:00.477Z,4.7
2023-01-17T06:55:00.761Z,4.4
2023-01-17T06:56:00.538Z,4.4
2023-01-17T06:57:00.373Z,4.4
2023-01-17T06:58:00.859Z,4.4
2023-01-17T06:59:01.127Z,4.4
2023-01-17T07:00:00.671Z,4.8
2023-01-17T07:01:09.186Z,4.8
2023-01-17T07:02:00.383Z,4.8
2023-01-17T07:03:00.897Z,4.8
2023-01-17T07:04:00.473Z,4.8
2023-01-17T07:05:00.385Z,4.4
2023-01-17T07:06:01.078Z,4.4
2023-01-17T07:07:00.399Z,4.4
2023-01-17T07:08:00.387Z,4.4
2023-01-17T07:09:00.388Z,4.4
2023-01-17T07:10:00.405Z,4.7
2023-01-17T07:11:03.248Z,4.7
2023-01-17T07:12:00.418Z,4.7
2023-01-17T07:13:00.374Z,4.7
2023-01-17T07:14:00.542Z,4.7
2023-01-17T07:15:00.353Z,4.2
2023-01-17T07:16:01.384Z,4.2
2023-01-17T07:17:00.441Z,4.2
2023-01-17T07:18:01.551Z,4.2
2023-01-17T07:19:00.397Z,4.2
2023-01-17T07:20:00.417Z,4.4
2023-01-17T07:21:00.399Z,4.4
2023-01-17T07:22:00.386Z,4.4
2023-01-17T07:23:00.363Z,4.4
2023-01-17T07:24:00.385Z,4.4
2023-01-17T07:25:00.364Z,4.4
2023-01-17T07:26:00.408Z,4.4
2023-01-17T07:27:00.375Z,4.4
2023-01-17T07:28:00.372Z,4.4
2023-01-17T07:29:00.361Z,4.4
2023-01-17T07:30:00.405Z,4.3
2023-01-17T07:31:04.699Z,4.3
2023-01-17T07:32:00.422Z,4.3
2023-01-17T07:33:00.388Z,4.3
2023-01-17T07:34:00.370Z,4.3
2023-01-17T07:35:00.364Z,4.5
2023-01-17T07:36:08.707Z,4.5
2023-01-17T07:37:00.384Z,4.5
2023-01-17T07:38:00.371Z,4.5
2023-01-17T07:39:00.862Z,4.5
2023-01-17T07:40:00.410Z,4.3
2023-01-17T07:41:00.705Z,4.3
2023-01-17T07:42:00.596Z,4.3
2023-01-17T07:43:00.945Z,4.3
2023-01-17T07:44:00.360Z,4.3
2023-01-17T07:45:00.378Z,4.2
2023-01-17T07:46:02.069Z,4.2
2023-01-17T07:47:00.376Z,4.2
2023-01-17T07:48:00.437Z,4.2
2023-01-17T07:49:00.609Z,4.2
2023-01-17T07:50:00.440Z,4.5
2023-01-17T07:51:00.429Z,4.5
2023-01-17T07:52:00.695Z,4.5
2023-01-17T07:53:00.357Z,4.5
2023-01-17T07:54:00.415Z,4.5
2023-01-17T07:55:00.486Z,4.2
2023-01-17T07:56:02.523Z,4.2
2023-01-17T07:57:00.888Z,4.2
2023-01-17T07:58:02.858Z,4.2
2023-01-17T07:59:00.655Z,4.2
2023-01-17T08:00:00.491Z,4.2
2023-01-17T08:01:03.737Z,4.2
2023-01-17T08:02:00.551Z,4.2
2023-01-17T08:03:00.396Z,4.2
2023-01-17T08:04:00.445Z,4.2
2023-01-17T08:05:00.471Z,4.4
2023-01-17T08:06:01.074Z,4.4
2023-01-17T08:07:00.756Z,4.4
2023-01-17T08:08:00.381Z,4.4
2023-01-17T08:09:00.388Z,4.4
2023-01-17T08:10:00.582Z,4.1
2023-01-17T08:11:00.408Z,4.1
2023-01-17T08:12:00.632Z,4.1
2023-01-17T08:13:00.530Z,4.1
2023-01-17T08:14:00.400Z,4.1
2023-01-17T08:15:00.380Z,3.9
2023-01-17T08:16:00.402Z,3.9
2023-01-17T08:17:06.256Z,3.9
2023-01-17T08:18:00.375Z,3.9
2023-01-17T08:19:00.376Z,3.9
2023-01-17T08:20:00.374Z,4.2
2023-01-17T08:21:00.394Z,4.2
2023-01-17T08:22:00.440Z,4.2
2023-01-17T08:23:00.457Z,4.2
2023-01-17T08:24:00.408Z,4.2
2023-01-17T08:25:00.396Z,3.9
2023-01-17T08:26:00.721Z,3.9
2023-01-17T08:27:00.393Z,3.9
2023-01-17T08:28:00.427Z,3.9
2023-01-17T08:29:00.509Z,3.9
2023-01-17T08:30:00.555Z,4.0
2023-01-17T08:31:08.798Z,4.0
2023-01-17T08:32:00.411Z,4.0
2023-01-17T08:33:00.382Z,4.0
2023-01-17T08:34:00.590Z,4.0
2023-01-17T08:35:00.357Z,3.8
2023-01-17T08:36:00.390Z,3.8
2023-01-17T08:37:00.385Z,3.8
2023-01-17T08:38:00.367Z,3.8
2023-01-17T08:39:00.415Z,3.8
2023-01-17T08:40:00.487Z,4.3
2023-01-17T08:41:00.515Z,4.3
2023-01-17T08:42:00.611Z,4.3
2023-01-17T08:43:00.410Z,4.3
2023-01-17T08:44:01.264Z,4.3
2023-01-17T08:45:00.423Z,3.9
2023-01-17T08:46:00.971Z,3.9
2023-01-17T08:47:00.416Z,3.9
2023-01-17T08:48:00.409Z,3.9
2023-01-17T08:49:00.390Z,3.9
2023-01-17T08:50:00.425Z,4.5
2023-01-17T08:51:01.817Z,4.5
2023-01-17T08:52:00.548Z,4.5
2023-01-17T08:53:01.414Z,4.5
2023-01-17T08:54:00.436Z,4.5
2023-01-17T08:55:00.429Z,4.2
2023-01-17T08:56:01.863Z,4.2
2023-01-17T08:57:00.384Z,4.2
2023-01-17T08:58:00.399Z,4.2
2023-01-17T08:59:00.394Z,4.2
2023-01-17T09:00:00.453Z,4.4
2023-01-17T09:01:01.992Z,4.4
2023-01-17T09:02:00.676Z,4.4
2023-01-17T09:03:00.428Z,4.4
2023-01-17T09:04:00.434Z,4.4
2023-01-17T09:05:00.471Z,5.1
2023-01-17T09:06:04.036Z,5.1
2023-01-17T09:07:00.394Z,5.1
2023-01-17T09:08:00.425Z,5.1
2023-01-17T09:09:00.414Z,5.1
2023-01-17T09:10:00.484Z,4.6
2023-01-17T09:11:03.038Z,4.6
2023-01-17T09:12:00.418Z,4.6
2023-01-17T09:13:00.382Z,4.6
2023-01-17T09:14:00.474Z,4.6
2023-01-17T09:15:00.395Z,4.4
2023-01-17T09:16:01.402Z,4.4
2023-01-17T09:17:01.177Z,4.4
2023-01-17T09:18:00.364Z,4.4
2023-01-17T09:19:00.424Z,4.4
2023-01-17T09:20:00.398Z,4.5
2023-01-17T09:21:08.998Z,4.5
2023-01-17T09:22:00.898Z,4.5
2023-01-17T09:23:02.997Z,4.5
2023-01-17T09:24:00.460Z,4.5
2023-01-17T09:25:00.457Z,4.9
2023-01-17T09:26:00.539Z,4.9
2023-01-17T09:27:00.571Z,4.9
2023-01-17T09:28:00.391Z,4.9
2023-01-17T09:29:00.453Z,4.9
2023-01-17T09:30:00.481Z,4.8
2023-01-17T09:31:04.924Z,4.8
2023-01-17T09:32:00.418Z,4.8
2023-01-17T09:33:00.407Z,4.8
2023-01-17T09:34:00.810Z,4.7
2023-01-17T09:35:00.384Z,4.7
2023-01-17T09:36:00.626Z,4.7
2023-01-17T09:37:00.404Z,4.7
2023-01-17T09:38:00.375Z,4.7
2023-01-17T09:39:01.780Z,4.7
2023-01-17T09:40:00.452Z,4.7
2023-01-17T09:41:02.406Z,4.7
2023-01-17T09:42:14.981Z,4.7
2023-01-17T09:43:05.601Z,4.7
2023-01-17T09:44:05.842Z,4.6
2023-01-17T09:45:00.478Z,4.6
2023-01-17T09:46:00.734Z,4.6
2023-01-17T09:47:10.347Z,4.6
2023-01-17T09:48:07.813Z,4.6
2023-01-17T09:49:13.573Z,4.4
2023-01-17T09:50:20.397Z,4.4
2023-01-17T09:51:08.567Z,4.4
2023-01-17T09:52:01.004Z,4.4
2023-01-17T09:53:04.606Z,4.4
2023-01-17T09:54:00.469Z,4.4
2023-01-17T09:55:00.428Z,4.4
2023-01-17T09:56:08.793Z,4.4
2023-01-17T09:57:12.143Z,4.4
2023-01-17T09:58:09.501Z,4.4
2023-01-17T09:59:12.075Z,4.8
2023-01-17T10:00:20.322Z,4.8
2023-01-17T10:01:03.881Z,4.8
2023-01-17T10:02:17.911Z,4.8
2023-01-17T10:03:18.346Z,4.8
2023-01-17T10:04:16.897Z,3.4
2023-01-17T10:05:01.447Z,3.4
2023-01-17T10:06:15.359Z,3.4
2023-01-17T10:07:12.945Z,3.4
2023-01-17T10:08:08.567Z,3.4
2023-01-17T10:09:20.299Z,3.5
2023-01-17T10:10:17.708Z,3.5
2023-01-17T10:11:20.292Z,3.5
2023-01-17T10:12:10.108Z,3.5
2023-01-17T10:13:20.299Z,3.5
2023-01-17T10:14:18.210Z,4.0
2023-01-17T10:15:10.353Z,4.0
2023-01-17T10:16:10.333Z,4.0
2023-01-17T10:17:09.188Z,4.0
2023-01-17T10:18:19.090Z,4.0
2023-01-17T10:19:15.919Z,3.8
2023-01-17T10:20:11.307Z,3.8
2023-01-17T10:21:11.359Z,3.8
2023-01-17T10:22:13.748Z,3.8
2023-01-17T10:23:16.342Z,3.8
2023-01-17T10:24:17.589Z,3.9
2023-01-17T10:25:17.788Z,3.9
2023-01-17T10:26:06.917Z,3.9
2023-01-17T10:27:02.281Z,3.9
2023-01-17T10:28:11.677Z,3.9
2023-01-17T10:29:07.427Z,3.7
2023-01-17T10:30:03.571Z,3.7
2023-01-17T10:31:13.537Z,3.7
2023-01-17T10:32:01.382Z,3.7
2023-01-17T10:33:04.704Z,3.7
2023-01-17T10:34:11.437Z,4.6
2023-01-17T10:35:11.502Z,4.6
2023-01-17T10:36:07.374Z,4.6
2023-01-17T10:37:15.816Z,4.6
2023-01-17T10:38:04.502Z,4.6
2023-01-17T10:39:10.959Z,3.5
2023-01-17T10:40:12.941Z,3.5
2023-01-17T10:41:06.121Z,3.5
2023-01-17T10:42:11.887Z,3.5
2023-01-17T10:43:08.513Z,3.5
2023-01-17T10:44:06.010Z,3.9
2023-01-17T10:45:06.323Z,3.9
2023-01-17T10:46:01.175Z,3.9
2023-01-17T10:47:10.322Z,3.9
2023-01-17T10:48:10.287Z,3.9
2023-01-17T10:49:01.372Z,3.7
2023-01-17T10:50:02.456Z,3.7
2023-01-17T10:51:14.034Z,3.7
2023-01-17T10:52:14.243Z,3.7
2023-01-17T10:53:13.485Z,3.7
2023-01-17T10:54:09.664Z,3.1
2023-01-17T10:55:07.446Z,3.1
2023-01-17T10:56:00.833Z,3.1
2023-01-17T10:57:00.520Z,3.1
2023-01-17T10:58:02.164Z,3.1
2023-01-17T10:59:20.276Z,3.3
2023-01-17T11:00:00.502Z,3.3
2023-01-17T11:01:09.910Z,3.3
2023-01-17T11:02:01.497Z,3.3
2023-01-17T11:03:01.241Z,3.3
2023-01-17T11:04:00.307Z,3.8
2023-01-17T11:05:08.319Z,3.8
2023-01-17T11:06:18.879Z,3.8
2023-01-17T11:07:12.273Z,3.8
2023-01-17T11:08:03.503Z,3.8
2023-01-17T11:09:00.556Z,3.5
2023-01-17T11:10:00.495Z,3.5
2023-01-17T11:11:03.169Z,3.5
2023-01-17T11:12:00.522Z,3.5
2023-01-17T11:13:00.432Z,3.5
2023-01-17T11:14:04.005Z,4.4
2023-01-17T11:15:04.660Z,4.4
2023-01-17T11:16:07.776Z,4.4
2023-01-17T11:17:02.218Z,4.4
2023-01-17T11:18:03.644Z,4.4
2023-01-17T11:19:07.292Z,3.5
2023-01-17T11:20:11.262Z,3.5
2023-01-17T11:21:14.721Z,3.5
2023-01-17T11:22:02.432Z,3.5
2023-01-17T11:23:19.628Z,3.5
2023-01-17T11:24:10.015Z,3.7
2023-01-17T11:25:00.582Z,3.7
2023-01-17T11:26:03.630Z,3.7
2023-01-17T11:27:03.119Z,3.7
2023-01-17T11:28:04.374Z,3.7
2023-01-17T11:29:20.215Z,3.9
2023-01-17T11:30:11.211Z,3.9
2023-01-17T11:31:12.427Z,3.9
2023-01-17T11:32:20.222Z,3.9
2023-01-17T11:33:03.126Z,3.9
2023-01-17T11:34:06.327Z,3.6
2023-01-17T11:35:11.263Z,3.6
2023-01-17T11:36:00.324Z,3.6
2023-01-17T11:37:17.413Z,3.6
2023-01-17T11:38:01.301Z,3.6
2023-01-17T11:39:03.410Z,3.8
2023-01-17T11:40:15.794Z,3.8
2023-01-17T11:41:08.325Z,3.8
2023-01-17T11:42:04.974Z,3.8
2023-01-17T11:43:10.292Z,3.8
2023-01-17T11:44:01.043Z,3.8
2023-01-17T11:45:20.226Z,3.8
2023-01-17T11:46:03.284Z,3.8
2023-01-17T11:47:11.296Z,3.8
2023-01-17T11:48:08.346Z,3.8
2023-01-17T11:49:00.549Z,3.5
2023-01-17T11:50:00.321Z,3.5
2023-01-17T11:51:02.345Z,3.5
2023-01-17T11:52:07.280Z,3.5
2023-01-17T11:53:06.442Z,3.5
2023-01-17T11:54:15.627Z,3.8
2023-01-17T11:55:00.485Z,3.8
2023-01-17T11:56:15.937Z,3.8
2023-01-17T11:57:00.634Z,3.8
2023-01-17T11:58:00.417Z,3.8
2023-01-17T11:59:10.251Z,3.6
2023-01-17T12:00:07.845Z,3.6
2023-01-17T12:01:15.941Z,3.6
2023-01-17T12:02:20.211Z,3.6
2023-01-17T12:03:11.281Z,3.6
2023-01-17T12:04:17.878Z,3.3
2023-01-17T12:05:12.544Z,3.3
2023-01-17T12:06:20.252Z,3.3
2023-01-17T12:07:16.701Z,3.3
2023-01-17T12:08:08.707Z,3.3
2023-01-17T12:09:10.333Z,3.9
2023-01-17T12:10:11.049Z,3.9
2023-01-17T12:11:18.770Z,3.9
2023-01-17T12:12:10.807Z,3.9
2023-01-17T12:13:20.305Z,3.9
2023-01-17T12:14:11.350Z,3.8
2023-01-17T12:15:08.847Z,3.8
2023-01-17T12:16:11.412Z,3.8
2023-01-17T12:17:16.106Z,3.8
2023-01-17T12:18:20.329Z,3.8
2023-01-17T12:19:10.372Z,3.7
2023-01-17T12:20:02.752Z,3.7
2023-01-17T12:21:07.800Z,3.7
2023-01-17T12:22:06.936Z,3.7
2023-01-17T12:23:19.385Z,3.7
2023-01-17T12:24:20.328Z,3.6
2023-01-17T12:25:00.447Z,3.6
2023-01-17T12:26:11.225Z,3.6
2023-01-17T12:27:13.615Z,3.6
2023-01-17T12:28:11.416Z,3.6
2023-01-17T12:29:20.372Z,3.5
2023-01-17T12:30:07.064Z,3.5
2023-01-17T12:31:09.297Z,3.5
2023-01-17T12:32:17.576Z,3.5
2023-01-17T12:33:09.877Z,3.5
2023-01-17T12:34:11.408Z,3.7
2023-01-17T12:35:12.126Z,3.7
2023-01-17T12:36:04.037Z,3.7
2023-01-17T12:37:11.407Z,3.7
2023-01-17T12:38:08.117Z,3.7
2023-01-17T12:39:04.607Z,3.7
2023-01-17T12:40:13.753Z,3.7
2023-01-17T12:41:13.604Z,3.7
2023-01-17T12:42:07.563Z,3.7
2023-01-17T12:43:10.031Z,3.7
2023-01-17T12:44:00.789Z,3.3
2023-01-17T12:45:04.504Z,3.3
2023-01-17T12:46:07.485Z,3.3
2023-01-17T12:47:03.619Z,3.3
2023-01-17T12:48:05.677Z,3.3
2023-01-17T12:49:19.651Z,3.8
2023-01-17T12:50:11.373Z,3.8
2023-01-17T12:51:05.644Z,3.8
2023-01-17T12:52:09.640Z,3.8
2023-01-17T12:53:13.984Z,3.8
2023-01-17T12:54:13.204Z,3.6
2023-01-17T12:55:06.472Z,3.6
2023-01-17T12:56:17.838Z,3.6
2023-01-17T12:57:13.953Z,3.6
2023-01-17T12:58:04.925Z,3.6
2023-01-17T12:59:17.791Z,3.7
2023-01-17T13:00:05.957Z,3.7
2023-01-17T13:01:05.610Z,3.7
2023-01-17T13:02:11.862Z,3.7
2023-01-17T13:03:11.386Z,3.7
2023-01-17T13:04:15.529Z,4.0
2023-01-17T13:05:01.378Z,4.0
2023-01-17T13:06:02.202Z,4.0
2023-01-17T13:07:11.361Z,4.0
2023-01-17T13:08:11.354Z,4.0
2023-01-17T13:09:03.805Z,3.5
2023-01-17T13:10:19.303Z,3.5
2023-01-17T13:11:06.602Z,3.5
2023-01-17T13:12:04.954Z,3.5
2023-01-17T13:13:12.217Z,3.5
2023-01-17T13:14:01.132Z,3.4
2023-01-17T13:15:00.785Z,3.4
2023-01-17T13:16:10.380Z,3.4
2023-01-17T13:17:20.304Z,3.4
2023-01-17T13:18:07.905Z,3.4
2023-01-17T13:19:11.657Z,3.5
2023-01-17T13:20:07.956Z,3.5
2023-01-17T13:21:17.732Z,3.5
2023-01-17T13:22:02.717Z,3.5
2023-01-17T13:23:11.396Z,3.5
2023-01-17T13:24:15.111Z,3.3
2023-01-17T13:25:13.643Z,3.3
2023-01-17T13:26:03.327Z,3.3
2023-01-17T13:27:13.324Z,3.3
2023-01-17T13:28:15.795Z,3.3
2023-01-17T13:29:18.809Z,3.5
2023-01-17T13:30:20.307Z,3.5
2023-01-17T13:31:11.453Z,3.5
2023-01-17T13:32:13.648Z,3.5
2023-01-17T13:33:20.287Z,3.5
2023-01-17T13:34:20.306Z,3.6
2023-01-17T13:35:20.295Z,3.6
2023-01-17T13:36:13.622Z,3.6
2023-01-17T13:37:20.298Z,3.6
2023-01-17T13:38:20.285Z,3.6
2023-01-17T13:39:18.983Z,3.7
2023-01-17T13:40:19.567Z,3.7
2023-01-17T13:41:10.619Z,3.7